Time;durP1;ratioP1;P1;durP2;ratioP2;P2;SDS_P1;SDS_P2;PMS_P1;PMS_P2;Temp;Humidity;BMP_temperature;BMP_pressure;BME280_temperature;BME280_humidity;BME280_pressure;Samples;Min_cycle;Max_cycle;Signal;HPM_P1;HPM_P2
2023/09/06 00:01:25;;;;;;;6.20;3.42;;;;;;;18.06;100.00;100843.72;5028046;28;20056;-73
2023/09/06 00:03:55;;;;;;;4.15;3.20;;;;;;;17.97;100.00;100833.63;5030077;28;20452;-73
2023/09/06 00:06:27;;;;;;;5.47;3.17;;;;;;;18.04;100.00;100849.19;5023419;28;20061;-73
2023/09/06 00:08:56;;;;;;;5.25;3.13;;;;;;;18.06;100.00;100849.09;5016907;28;20122;-73
2023/09/06 00:11:25;;;;;;;5.07;3.35;;;;;;;18.01;100.00;100836.00;5028719;28;20056;-75
2023/09/06 00:13:53;;;;;;;6.72;2.53;;;;;;;18.00;100.00;100834.28;5007035;28;20108;-73
2023/09/06 00:16:21;;;;;;;4.03;3.13;;;;;;;18.03;100.00;100843.94;5030270;28;20053;-73
2023/09/06 00:18:50;;;;;;;4.35;2.83;;;;;;;17.93;100.00;100835.72;5015558;28;20068;-73
2023/09/06 00:21:18;;;;;;;4.50;3.17;;;;;;;17.94;100.00;100839.25;5012424;28;20034;-73
2023/09/06 00:23:49;;;;;;;5.90;2.88;;;;;;;17.91;100.00;100840.31;5034324;28;20085;-73
2023/09/06 00:26:17;;;;;;;4.05;2.47;;;;;;;17.86;100.00;100835.25;5020191;28;20159;-74
2023/09/06 00:28:47;;;;;;;3.08;2.78;;;;;;;17.84;100.00;100839.88;5032993;28;20120;-74
2023/09/06 00:31:14;;;;;;;7.50;3.10;;;;;;;17.83;100.00;100834.63;5025779;28;20045;-72
2023/09/06 00:33:44;;;;;;;4.57;2.85;;;;;;;17.78;100.00;100826.94;5028677;28;20120;-72
2023/09/06 00:36:12;;;;;;;5.22;3.22;;;;;;;17.80;100.00;100832.16;5025867;28;20076;-73
2023/09/06 00:38:40;;;;;;;6.18;3.40;;;;;;;17.76;100.00;100823.50;5025812;28;20045;-74
2023/09/06 00:41:11;;;;;;;4.22;3.15;;;;;;;17.80;100.00;100833.00;5030238;28;20048;-74
2023/09/06 00:43:39;;;;;;;4.85;3.13;;;;;;;17.74;100.00;100817.38;5027438;28;20058;-74
2023/09/06 00:46:07;;;;;;;4.20;2.92;;;;;;;17.84;100.00;100839.88;5040501;28;20132;-73
2023/09/06 00:48:37;;;;;;;4.65;3.30;;;;;;;17.83;100.00;100830.13;5008510;28;20050;-75
2023/09/06 00:51:07;;;;;;;6.78;3.35;;;;;;;17.79;100.00;100825.94;5037150;28;20064;-73
2023/09/06 00:53:36;;;;;;;3.63;3.10;;;;;;;17.73;100.00;100822.84;5044166;28;20060;-73
2023/09/06 00:56:08;;;;;;;4.90;3.08;;;;;;;17.72;100.00;100824.66;5036008;28;20045;-74
2023/09/06 00:58:39;;;;;;;4.68;2.90;;;;;;;17.65;100.00;100815.31;5027859;28;20052;-72
2023/09/06 01:01:07;;;;;;;3.78;3.13;;;;;;;17.63;100.00;100809.19;5028511;28;20675;-72
2023/09/06 01:03:40;;;;;;;5.47;3.40;;;;;;;17.66;100.00;100819.72;5020218;28;20157;-73
2023/09/06 01:06:18;;;;;;;3.78;3.05;;;;;;;17.62;100.00;100810.19;5008683;28;20055;-73
2023/09/06 01:08:52;;;;;;;4.10;3.20;;;;;;;17.52;100.00;100795.69;5019979;28;20045;-74
2023/09/06 01:11:22;;;;;;;3.85;3.10;;;;;;;17.58;100.00;100811.34;5025729;28;20053;-73
2023/09/06 01:13:54;;;;;;;5.05;3.13;;;;;;;17.50;100.00;100805.66;5017127;28;20053;-72
2023/09/06 01:16:29;;;;;;;4.13;3.10;;;;;;;17.47;100.00;100819.28;5023249;28;20864;-73
2023/09/06 01:18:58;;;;;;;5.50;2.95;;;;;;;17.36;100.00;100816.44;5037467;28;20088;-72
2023/09/06 01:21:34;;;;;;;4.25;3.33;;;;;;;17.39;100.00;100821.59;5011949;28;20029;-73
2023/09/06 01:24:06;;;;;;;4.07;3.03;;;;;;;17.42;100.00;100829.44;5018597;28;20056;-78
2023/09/06 01:26:35;;;;;;;5.57;3.47;;;;;;;17.45;100.00;100821.19;5038285;28;20049;-73
2023/09/06 01:29:03;;;;;;;6.90;3.13;;;;;;;17.25;100.00;100808.31;5008570;28;20059;-73
2023/09/06 01:31:32;;;;;;;5.47;3.20;;;;;;;17.26;100.00;100821.59;5017909;28;20049;-73
2023/09/06 01:34:00;;;;;;;4.97;3.28;;;;;;;17.21;100.00;100812.16;5025358;28;20069;-72
2023/09/06 01:36:29;;;;;;;3.60;3.10;;;;;;;17.19;100.00;100807.75;5032881;28;20049;-74
2023/09/06 01:38:59;;;;;;;4.20;2.70;;;;;;;17.23;100.00;100813.75;5015449;28;20055;-74
2023/09/06 01:41:29;;;;;;;7.15;2.95;;;;;;;17.26;100.00;100804.66;5011863;28;20050;-73
2023/09/06 01:44:00;;;;;;;4.30;3.17;;;;;;;17.12;100.00;100797.59;5025592;28;20045;-74
2023/09/06 01:46:28;;;;;;;4.35;2.50;;;;;;;17.11;100.00;100818.13;5039688;28;20049;-73
2023/09/06 01:48:59;;;;;;;5.28;3.30;;;;;;;16.97;100.00;100804.81;5035241;28;20078;-73
2023/09/06 01:51:27;;;;;;;4.65;3.20;;;;;;;16.96;100.00;100804.94;5011755;28;20060;-73
2023/09/06 01:53:56;;;;;;;4.18;3.13;;;;;;;16.84;100.00;100791.38;5018309;28;20441;-73
2023/09/06 01:56:25;;;;;;;3.83;3.30;;;;;;;16.96;100.00;100808.47;5031681;28;20035;-73
2023/09/06 01:58:54;;;;;;;4.65;3.20;;;;;;;16.95;100.00;100805.88;5024607;28;20057;-73
2023/09/06 02:01:23;;;;;;;3.67;2.78;;;;;;;16.89;100.00;100800.94;5020009;28;20042;-73
2023/09/06 02:03:51;;;;;;;3.58;2.92;;;;;;;16.85;100.00;100792.25;5023552;28;20130;-73
2023/09/06 02:06:19;;;;;;;4.50;3.20;;;;;;;16.79;100.00;100790.84;5032569;28;20052;-72
2023/09/06 02:08:49;;;;;;;3.17;2.70;;;;;;;16.86;100.00;100801.97;5040957;28;20045;-71
2023/09/06 02:11:19;;;;;;;3.70;2.83;;;;;;;16.82;100.00;100806.72;5014528;28;20033;-72
2023/09/06 02:13:47;;;;;;;6.93;3.67;;;;;;;16.87;100.00;100800.16;5006296;28;20061;-72
2023/09/06 02:16:18;;;;;;;7.07;3.50;;;;;;;16.83;100.00;100802.22;5018669;28;20041;-72
2023/09/06 02:18:47;;;;;;;4.00;3.10;;;;;;;16.82;100.00;100809.38;5029490;28;20068;-73
2023/09/06 02:21:15;;;;;;;5.40;3.20;;;;;;;16.76;100.00;100808.91;5023671;28;20049;-74
2023/09/06 02:23:43;;;;;;;6.65;3.30;;;;;;;16.67;100.00;100812.22;5019826;28;20053;-73
2023/09/06 02:26:12;;;;;;;4.97;3.03;;;;;;;16.58;100.00;100810.09;5029154;28;20092;-73
2023/09/06 02:28:39;;;;;;;4.15;3.53;;;;;;;16.56;100.00;100810.19;5027648;28;20124;-74
2023/09/06 02:31:08;;;;;;;5.75;3.30;;;;;;;16.56;100.00;100820.88;5019514;28;20038;-75
2023/09/06 02:33:39;;;;;;;4.70;2.92;;;;;;;16.52;100.00;100818.53;5029884;28;20041;-74
2023/09/06 02:36:07;;;;;;;;;;;;;;;16.51;100.00;100823.00;5008611;28;20748;-73
2023/09/06 02:38:35;;;;;;;3.45;3.10;;;;;;;16.49;100.00;100820.44;5018245;28;19979;-74
2023/09/06 02:41:03;;;;;;;4.70;3.35;;;;;;;16.46;100.00;100820.63;4988943;28;20051;-74
2023/09/06 02:43:31;;;;;;;6.88;3.45;;;;;;;16.43;100.00;100815.47;5017975;28;20041;-74
2023/09/06 02:46:03;;;;;;;4.47;3.13;;;;;;;16.37;100.00;100813.19;5016547;28;20590;-75
2023/09/06 02:48:33;;;;;;;5.60;3.20;;;;;;;16.35;100.00;100817.78;5032181;28;20114;-73
2023/09/06 02:51:04;;;;;;;5.50;3.42;;;;;;;16.32;100.00;100815.31;4992017;28;20057;-73
2023/09/06 02:53:33;;;;;;;3.70;2.95;;;;;;;16.33;100.00;100825.06;5010016;28;20037;-74
2023/09/06 02:56:01;;;;;;;6.18;3.30;;;;;;;16.30;100.00;100827.91;5005835;28;20040;-73
2023/09/06 02:58:31;;;;;;;4.55;2.80;;;;;;;16.30;100.00;100835.06;5012637;28;20112;-73
2023/09/06 03:01:05;;;;;;;5.00;3.00;;;;;;;16.29;100.00;100831.53;5033712;28;20057;-73
2023/09/06 03:03:34;;;;;;;4.28;3.67;;;;;;;16.29;100.00;100820.00;5020755;28;20104;-73
2023/09/06 03:06:04;;;;;;;5.75;3.33;;;;;;;16.28;100.00;100821.81;5015384;28;20033;-73
2023/09/06 03:08:36;;;;;;;4.75;3.50;;;;;;;16.29;100.00;100817.31;4976470;28;20647;-73
2023/09/06 03:11:07;;;;;;;7.05;3.75;;;;;;;16.25;100.00;100816.66;4977621;28;20050;-72
2023/09/06 03:13:36;;;;;;;5.43;3.38;;;;;;;16.24;100.00;100814.06;4996399;28;20364;-72
2023/09/06 03:16:05;;;;;;;6.85;3.88;;;;;;;16.24;100.00;100812.25;4998562;28;20093;-72
2023/09/06 03:18:33;;;;;;;7.45;3.80;;;;;;;16.20;100.00;100815.25;4979801;28;20046;-74
2023/09/06 03:21:04;;;;;;;5.55;3.72;;;;;;;16.22;100.00;100821.31;4982032;28;20499;-73
2023/09/06 03:23:34;;;;;;;4.55;3.47;;;;;;;16.19;100.00;100814.38;4985025;28;20082;-74
2023/09/06 03:26:09;;;;;;;5.45;3.60;;;;;;;16.26;100.00;100826.38;4985949;28;20050;-75
2023/09/06 03:28:40;;;;;;;4.70;3.42;;;;;;;16.18;100.00;100815.34;4986867;28;20117;-73
2023/09/06 03:31:15;;;;;;;3.80;3.35;;;;;;;16.24;100.00;100825.63;4975827;28;20034;-72
2023/09/06 03:33:44;;;;;;;6.25;3.30;;;;;;;16.10;100.00;100807.78;4977200;28;20057;-75
2023/09/06 03:36:14;;;;;;;4.55;3.35;;;;;;;16.22;100.00;100824.84;4986737;28;20074;-73
2023/09/06 03:38:46;;;;;;;5.18;3.53;;;;;;;16.21;100.00;100831.19;4978703;28;20046;-73
2023/09/06 03:41:16;;;;;;;5.15;3.30;;;;;;;16.20;100.00;100829.47;4998319;28;20411;-73
2023/09/06 03:43:45;;;;;;;3.80;3.40;;;;;;;16.17;100.00;100829.66;4959336;28;20058;-73
2023/09/06 03:46:14;;;;;;;4.88;3.35;;;;;;;16.11;100.00;100830.03;4974838;28;20107;-73
2023/09/06 03:48:45;;;;;;;6.35;3.55;;;;;;;16.03;100.00;100827.00;4983581;28;20034;-73
2023/09/06 03:51:14;;;;;;;7.65;3.50;;;;;;;16.04;100.00;100828.72;4979969;28;20149;-74
2023/09/06 03:53:43;;;;;;;6.30;3.65;;;;;;;16.04;100.00;100840.25;4973004;28;20050;-73
2023/09/06 03:56:12;;;;;;;5.80;3.53;;;;;;;16.03;100.00;100838.53;4984826;28;20050;-72
2023/09/06 03:58:44;;;;;;;5.32;3.38;;;;;;;15.85;100.00;100810.31;4981344;28;20038;-72
2023/09/06 04:01:15;;;;;;;5.15;3.70;;;;;;;16.00;100.00;100835.19;4980797;28;20779;-73
2023/09/06 04:03:46;;;;;;;5.95;3.60;;;;;;;15.96;100.00;100839.88;4971527;28;20039;-74
2023/09/06 04:06:17;;;;;;;4.68;3.80;;;;;;;15.92;100.00;100841.00;4979429;28;20515;-73
2023/09/06 04:08:48;;;;;;;4.63;3.60;;;;;;;15.82;100.00;100839.00;5021108;28;20060;-72
2023/09/06 04:11:17;;;;;;;5.00;3.47;;;;;;;15.78;100.00;100839.19;5022137;28;20081;-73
2023/09/06 04:13:45;;;;;;;4.82;3.80;;;;;;;15.81;100.00;100842.63;5009217;28;21190;-72
2023/09/06 04:16:16;;;;;;;6.22;3.88;;;;;;;15.70;100.00;100830.81;5023292;28;20655;-72
2023/09/06 04:18:46;;;;;;;6.20;3.80;;;;;;;15.76;100.00;100850.91;5011502;28;20070;-72
2023/09/06 04:21:15;;;;;;;4.78;3.58;;;;;;;15.70;100.00;100844.16;5020579;28;20481;-72
2023/09/06 04:23:46;;;;;;;5.28;3.55;;;;;;;15.57;100.00;100827.16;5012383;28;20056;-72
2023/09/06 04:26:19;;;;;;;4.72;3.78;;;;;;;15.66;100.00;100847.09;5023910;28;20346;-72
2023/09/06 04:28:49;;;;;;;5.45;4.07;;;;;;;15.63;100.00;100849.94;5024046;28;20052;-71
2023/09/06 04:31:19;;;;;;;6.03;4.07;;;;;;;15.58;100.00;100855.59;5009904;28;20121;-73
2023/09/06 04:33:48;;;;;;;7.78;4.45;;;;;;;15.52;100.00;100849.72;5016574;28;20521;-72
2023/09/06 04:36:25;;;;;;;4.38;3.97;;;;;;;15.50;100.00;100851.59;5018971;28;20056;-72
2023/09/06 04:39:03;;;;;;;5.70;4.15;;;;;;;15.45;100.00;100852.72;5018852;28;20053;-73
2023/09/06 04:41:36;;;;;;;6.63;4.03;;;;;;;15.46;100.00;100853.59;5002745;28;20533;-73
2023/09/06 04:44:07;;;;;;;3.70;3.30;;;;;;;15.34;100.00;100832.97;5015763;28;20074;-73
2023/09/06 04:46:35;;;;;;;5.50;3.97;;;;;;;15.38;100.00;100850.53;5022170;28;20041;-73
2023/09/06 04:49:04;;;;;;;6.45;4.30;;;;;;;15.44;100.00;100861.69;5026974;28;20100;-74
2023/09/06 04:51:32;;;;;;;5.55;4.18;;;;;;;15.30;100.00;100836.78;5020124;28;20053;-76
2023/09/06 04:54:09;;;;;;;5.03;3.65;;;;;;;15.42;100.00;100863.59;5002856;28;20469;-73
2023/09/06 04:56:40;;;;;;;6.65;3.83;;;;;;;15.42;100.00;100860.09;5025247;28;20041;-73
2023/09/06 04:59:09;;;;;;;6.20;3.88;;;;;;;14.97;100.00;100792.47;5025120;28;20048;-73
2023/09/06 05:01:37;;;;;;;7.80;3.75;;;;;;;15.41;100.00;100864.56;5012837;28;20061;-74
2023/09/06 05:04:06;;;;;;;8.50;4.10;;;;;;;15.44;100.00;100869.69;4998754;28;20064;-74
2023/09/06 05:06:36;;;;;;;4.90;4.00;;;;;;;15.49;100.00;100872.09;5028517;28;20057;-74
2023/09/06 05:09:10;;;;;;;6.03;4.03;;;;;;;15.49;100.00;100864.09;5026933;28;20041;-73
2023/09/06 05:11:38;;;;;;;6.15;3.88;;;;;;;15.59;100.00;100878.63;5029717;28;20045;-72
2023/09/06 05:14:06;;;;;;;4.28;3.88;;;;;;;15.67;100.00;100878.19;5025556;28;20054;-73
2023/09/06 05:16:35;;;;;;;6.18;4.25;;;;;;;15.68;100.00;100880.75;5044729;28;20050;-73
2023/09/06 05:19:04;;;;;;;7.32;4.18;;;;;;;15.73;100.00;100885.81;5033736;28;20548;-71
2023/09/06 05:21:36;;;;;;;5.25;4.30;;;;;;;15.72;100.00;100881.44;4991093;28;20033;-73
2023/09/06 05:24:06;;;;;;;5.72;3.90;;;;;;;15.72;100.00;100882.31;5015118;28;20048;-74
2023/09/06 05:26:35;;;;;;;;;;;;;;;15.81;100.00;100896.03;5006991;28;20053;-72
2023/09/06 05:29:04;;;;;;;5.05;3.78;;;;;;;15.81;100.00;100886.22;5016591;28;19922;-73
2023/09/06 05:31:34;;;;;;;5.60;4.05;;;;;;;15.89;100.00;100893.78;5018577;28;20050;-73
2023/09/06 05:34:03;;;;;;;5.60;3.78;;;;;;;15.91;100.00;100894.50;5028978;28;20042;-73
2023/09/06 05:36:31;;;;;;;6.63;4.30;;;;;;;15.93;100.00;100887.25;5031487;28;20049;-73
2023/09/06 05:38:59;;;;;;;8.35;4.15;;;;;;;15.93;100.00;100889.94;5017172;28;20049;-73
2023/09/06 05:41:31;;;;;;;6.50;4.18;;;;;;;15.92;100.00;100885.53;5020942;28;20048;-74
2023/09/06 05:44:02;;;;;;;6.72;4.10;;;;;;;15.86;100.00;100872.59;5009970;28;20041;-74
2023/09/06 05:46:31;;;;;;;6.53;4.43;;;;;;;15.95;100.00;100883.56;5036916;28;20132;-73
2023/09/06 05:49:05;;;;;;;8.00;4.18;;;;;;;15.96;100.00;100873.72;5022133;28;20037;-73
2023/09/06 05:51:39;;;;;;;7.07;4.40;;;;;;;16.03;100.00;100885.75;5015740;28;20041;-73
2023/09/06 05:54:09;;;;;;;10.25;4.35;;;;;;;15.91;100.00;100857.13;5015312;28;20041;-72
2023/09/06 05:56:40;;;;;;;4.70;3.63;;;;;;;16.16;100.00;100891.19;5033716;28;20046;-74
2023/09/06 05:59:13;;;;;;;5.65;4.13;;;;;;;16.19;100.00;100896.34;5012338;28;22467;-75
2023/09/06 06:01:41;;;;;;;8.13;4.45;;;;;;;16.22;100.00;100888.13;5023782;28;20144;-74
2023/09/06 06:04:11;;;;;;;7.60;4.65;;;;;;;16.14;100.00;100877.94;4995891;28;20074;-73
2023/09/06 06:06:39;;;;;;;5.63;4.38;;;;;;;16.26;100.00;100893.19;5023236;28;20223;-74
2023/09/06 06:09:11;;;;;;;7.60;4.45;;;;;;;16.30;100.00;100896.53;5029024;28;20045;-73
2023/09/06 06:11:41;;;;;;;6.30;4.25;;;;;;;16.26;100.00;100882.50;5037982;28;20045;-72
2023/09/06 06:14:10;;;;;;;4.93;4.30;;;;;;;16.33;100.00;100902.56;5028633;28;20309;-73
2023/09/06 06:16:39;;;;;;;6.85;5.10;;;;;;;16.42;100.00;100901.97;5031621;28;20117;-72
2023/09/06 06:19:09;;;;;;;5.95;4.00;;;;;;;16.47;100.00;100910.56;5039090;28;20080;-73
2023/09/06 06:21:38;;;;;;;9.60;6.00;;;;;;;16.47;100.00;100899.00;5005419;28;20099;-72
2023/09/06 06:24:08;;;;;;;5.30;4.38;;;;;;;16.62;100.00;100915.88;5012502;28;20041;-75
2023/09/06 06:26:36;;;;;;;5.07;4.38;;;;;;;16.67;100.00;100913.81;5034865;28;20076;-75
2023/09/06 06:29:06;;;;;;;6.55;4.25;;;;;;;16.66;100.00;100893.38;5003796;28;20639;-74
2023/09/06 06:31:35;;;;;;;;;;;;;;;16.84;100.00;100911.75;5040112;28;20092;-74
2023/09/06 06:34:03;;;;;;;6.00;4.18;;;;;;;16.96;100.00;100914.63;5023848;28;20004;-73
2023/09/06 06:36:31;;;;;;;6.97;3.97;;;;;;;17.04;100.00;100918.50;5017080;28;20054;-75
2023/09/06 06:38:59;;;;;;;6.95;4.00;;;;;;;17.16;100.00;100909.66;5019461;28;20514;-73
2023/09/06 06:41:28;;;;;;;11.85;3.90;;;;;;;17.37;100.00;100920.75;5022323;28;20083;-72
2023/09/06 06:43:57;;;;;;;6.40;4.05;;;;;;;17.53;100.00;100909.88;5023993;28;20048;-72
2023/09/06 06:46:29;;;;;;;5.32;3.90;;;;;;;17.81;100.00;100915.09;5030752;28;20045;-73
2023/09/06 06:48:57;;;;;;;5.60;3.92;;;;;;;18.08;100.00;100914.16;5022396;28;20099;-74
2023/09/06 06:51:26;;;;;;;5.60;3.60;;;;;;;18.40;100.00;100918.09;5016249;28;20165;-71
2023/09/06 06:53:54;;;;;;;4.43;3.42;;;;;;;18.69;100.00;100917.88;5005528;28;20050;-72
2023/09/06 06:56:22;;;;;;;6.63;3.28;;;;;;;19.03;100.00;100922.50;5011247;28;20554;-72
2023/09/06 06:58:50;;;;;;;6.38;3.53;;;;;;;19.32;100.00;100916.78;5017629;28;20060;-72
2023/09/06 07:01:18;;;;;;;7.57;4.30;;;;;;;19.68;100.00;100919.38;5032289;28;20068;-72
2023/09/06 07:03:48;;;;;;;8.27;4.43;;;;;;;19.94;100.00;100907.47;5013577;28;20033;-76
2023/09/06 07:06:16;;;;;;;5.73;3.60;;;;;;;20.17;100.00;100915.56;5017374;28;20041;-73
2023/09/06 07:08:44;;;;;;;9.13;4.25;;;;;;;20.39;100.00;100923.69;5029599;28;20045;-74
2023/09/06 07:11:12;;;;;;;6.55;3.67;;;;;;;20.61;100.00;100928.22;5000706;28;20054;-73
2023/09/06 07:13:42;;;;;;;4.60;3.83;;;;;;;20.70;100.00;100926.59;5013935;28;20061;-74
2023/09/06 07:16:10;;;;;;;5.93;3.40;;;;;;;20.72;100.00;100919.28;5024063;28;20037;-73
2023/09/06 07:18:38;;;;;;;6.60;3.33;;;;;;;20.83;100.00;100911.16;5033050;28;20425;-73
2023/09/06 07:21:08;;;;;;;6.05;3.38;;;;;;;20.87;100.00;100915.34;5021388;28;20103;-74
2023/09/06 07:23:37;;;;;;;5.40;3.25;;;;;;;20.99;100.00;100920.56;5010839;28;20564;-74
2023/09/06 07:26:05;;;;;;;9.75;6.10;;;;;;;21.12;100.00;100925.78;5035248;28;20096;-75
2023/09/06 07:28:41;;;;;;;4.75;3.25;;;;;;;21.14;100.00;100896.88;5017451;28;20053;-76
2023/09/06 07:31:09;;;;;;;4.78;3.05;;;;;;;21.25;100.00;100913.03;5032650;28;20056;-75
2023/09/06 07:33:39;;;;;;;5.60;3.45;;;;;;;21.39;100.00;100925.38;5017121;28;20049;-75
2023/09/06 07:36:10;;;;;;;5.97;3.53;;;;;;;21.46;100.00;100925.72;5015659;28;20034;-75
2023/09/06 07:38:38;;;;;;;4.82;3.10;;;;;;;21.53;100.00;100930.47;5035903;28;20108;-75
2023/09/06 07:41:08;;;;;;;5.10;3.08;;;;;;;21.61;100.00;100937.88;5021335;28;20053;-75
2023/09/06 07:43:38;;;;;;;5.68;3.60;;;;;;;21.68;100.00;100947.19;5013804;28;20641;-75
2023/09/06 07:46:10;;;;;;;5.07;3.40;;;;;;;21.77;100.00;100949.06;5021945;28;20025;-75
2023/09/06 07:48:38;;;;;;;5.60;3.35;;;;;;;21.98;100.00;100944.56;5005537;28;20045;-74
2023/09/06 07:51:11;;;;;;;6.38;3.42;;;;;;;22.15;100.00;100944.97;5016324;28;20084;-76
2023/09/06 07:53:39;;;;;;;5.00;3.63;;;;;;;22.28;94.45;100943.78;5017336;28;20494;-75
2023/09/06 07:56:07;;;;;;;4.00;3.65;;;;;;;22.30;94.36;100947.19;5018499;28;20052;-75
2023/09/06 07:58:36;;;;;;;7.32;3.47;;;;;;;22.32;94.13;100955.16;5021835;28;20049;-75
2023/09/06 08:01:05;;;;;;;5.70;3.58;;;;;;;22.44;93.12;100932.50;5006612;28;20050;-75
2023/09/06 08:03:46;;;;;;;4.68;3.35;;;;;;;23.08;91.90;100946.53;5020933;28;20049;-75
2023/09/06 08:06:18;;;;;;;5.68;3.55;;;;;;;23.43;87.50;100946.00;5021187;28;20037;-75
2023/09/06 08:08:46;;;;;;;4.38;3.17;;;;;;;23.65;83.96;100954.84;5026431;28;20050;-75
2023/09/06 08:11:17;;;;;;;8.00;3.60;;;;;;;23.74;83.69;100956.72;5020029;28;20045;-75
2023/09/06 08:13:46;;;;;;;4.43;3.60;;;;;;;23.94;80.58;100950.25;5011706;28;20041;-77
2023/09/06 08:16:15;;;;;;;4.20;3.80;;;;;;;23.92;79.24;100946.88;5006586;28;20081;-75
2023/09/06 08:18:46;;;;;;;5.10;3.00;;;;;;;23.71;79.82;100951.59;5020655;28;20121;-75
2023/09/06 08:21:15;;;;;;;3.95;3.25;;;;;;;23.48;80.27;100945.56;5024418;28;20038;-75
2023/09/06 08:23:45;;;;;;;5.28;3.35;;;;;;;23.43;80.61;100959.53;5023935;28;20068;-75
2023/09/06 08:26:13;;;;;;;6.85;3.50;;;;;;;23.44;81.42;100954.97;5026154;28;20042;-75
2023/09/06 08:28:41;;;;;;;4.75;3.30;;;;;;;23.55;81.02;100954.00;5022656;28;20056;-75
2023/09/06 08:31:11;;;;;;;5.90;3.70;;;;;;;23.50;81.70;100950.81;5021183;28;20034;-75
2023/09/06 08:33:39;;;;;;;5.22;3.20;;;;;;;23.61;78.69;100950.75;5037633;28;20178;-75
2023/09/06 08:36:08;;;;;;;6.15;3.20;;;;;;;23.84;78.40;100954.84;5018558;28;20046;-75
2023/09/06 08:38:36;;;;;;;5.35;3.05;;;;;;;24.03;73.57;100944.00;5043276;28;20057;-75
2023/09/06 08:41:07;;;;;;;4.20;3.40;;;;;;;24.23;73.06;100954.78;5025076;28;20406;-75
2023/09/06 08:43:42;;;;;;;3.53;3.20;;;;;;;24.61;72.34;100957.38;5017551;28;20045;-74
2023/09/06 08:46:19;;;;;;;3.97;3.58;;;;;;;24.81;69.19;100955.44;5024437;28;20053;-74
2023/09/06 08:48:48;;;;;;;5.15;3.80;;;;;;;24.58;72.40;100946.00;5024500;28;20045;-74
2023/09/06 08:51:16;;;;;;;5.30;3.80;;;;;;;24.40;73.88;100954.03;5035863;28;20134;-74
2023/09/06 08:53:56;;;;;;;4.60;3.40;;;;;;;24.16;74.45;100948.25;5039014;28;20096;-74
2023/09/06 08:56:29;;;;;;;4.22;3.33;;;;;;;23.99;74.13;100952.53;5046147;28;20447;-75
2023/09/06 08:58:58;;;;;;;4.78;3.50;;;;;;;23.65;74.45;100908.88;5008259;28;20048;-74
2023/09/06 09:01:30;;;;;;;4.00;3.38;;;;;;;23.74;67.67;100940.50;5034628;28;20084;-74
2023/09/06 09:03:58;;;;;;;5.28;3.65;;;;;;;23.69;68.97;100943.63;5021985;28;20130;-74
2023/09/06 09:06:30;;;;;;;4.87;3.80;;;;;;;23.65;66.06;100938.63;5029130;28;20057;-74
2023/09/06 09:09:14;;;;;;;5.50;3.60;;;;;;;23.71;63.78;100940.78;5022675;28;20042;-76
2023/09/06 09:11:45;;;;;;;6.07;3.83;;;;;;;23.69;64.08;100927.38;5022604;28;20065;-75
2023/09/06 09:14:22;;;;;;;4.32;3.90;;;;;;;23.78;63.93;100934.63;5017050;28;20057;-74
2023/09/06 09:16:55;;;;;;;5.25;3.70;;;;;;;23.89;64.39;100932.78;5024906;28;20133;-74
2023/09/06 09:19:23;;;;;;;5.60;3.70;;;;;;;24.00;62.46;100946.13;5017663;28;20042;-75
2023/09/06 09:21:55;;;;;;;4.45;3.53;;;;;;;23.96;62.21;100932.03;5033723;28;20064;-78
2023/09/06 09:24:26;;;;;;;5.93;3.72;;;;;;;24.04;57.96;100932.19;5029759;28;20068;-73
2023/09/06 09:26:57;;;;;;;5.07;3.53;;;;;;;24.09;58.10;100934.44;5038878;28;20041;-74
2023/09/06 09:29:25;;;;;;;5.40;3.60;;;;;;;24.09;59.41;100924.47;5036035;28;20054;-73
2023/09/06 09:31:53;;;;;;;5.15;3.67;;;;;;;24.22;58.02;100937.69;5036359;28;20064;-74
2023/09/06 09:34:22;;;;;;;5.57;3.80;;;;;;;24.31;57.90;100928.72;5001296;28;20042;-73
2023/09/06 09:36:52;;;;;;;5.53;3.80;;;;;;;24.05;58.25;100877.09;5040253;28;20060;-73
2023/09/06 09:39:26;;;;;;;3.97;3.40;;;;;;;24.48;57.16;100927.09;5027261;28;20056;-75
2023/09/06 09:41:59;;;;;;;4.90;3.50;;;;;;;24.53;56.86;100916.69;5023007;28;20144;-73
2023/09/06 09:44:28;;;;;;;4.88;3.50;;;;;;;24.66;55.59;100919.88;5033742;28;20383;-73
2023/09/06 09:46:57;;;;;;;3.80;3.50;;;;;;;24.66;56.18;100914.47;5022953;28;20111;-74
2023/09/06 09:49:27;;;;;;;7.32;3.55;;;;;;;24.58;54.41;100889.13;5029641;28;20476;-75
2023/09/06 09:51:57;;;;;;;8.23;3.80;;;;;;;24.77;53.99;100918.81;5024719;28;20533;-74
2023/09/06 09:54:33;;;;;;;6.10;3.67;;;;;;;24.78;55.14;100904.28;5019246;28;20045;-76
2023/09/06 09:57:06;;;;;;;4.47;3.75;;;;;;;24.94;55.27;100914.50;5027077;28;20056;-73
2023/09/06 09:59:37;;;;;;;5.43;4.25;;;;;;;24.99;53.94;100909.47;5037079;28;20204;-77
2023/09/06 10:02:08;;;;;;;4.75;3.42;;;;;;;25.03;53.93;100908.13;5026033;28;20041;-75
2023/09/06 10:04:37;;;;;;;6.20;3.60;;;;;;;25.14;53.47;100914.22;5018764;28;20138;-75
2023/09/06 10:07:09;;;;;;;6.72;3.90;;;;;;;25.21;52.87;100905.44;4996945;28;20045;-74
2023/09/06 10:09:40;;;;;;;5.07;3.72;;;;;;;25.29;52.80;100900.97;5020089;28;20052;-74
2023/09/06 10:12:11;;;;;;;3.83;3.33;;;;;;;25.32;53.14;100895.25;5035056;28;20064;-75
2023/09/06 10:14:39;;;;;;;5.35;4.00;;;;;;;25.42;52.06;100898.72;5025623;28;20081;-74
2023/09/06 10:17:08;;;;;;;4.65;3.80;;;;;;;25.49;52.36;100894.41;5027783;28;20055;-73
2023/09/06 10:19:37;;;;;;;5.43;3.85;;;;;;;25.59;52.23;100890.72;5025121;28;20046;-71
2023/09/06 10:22:22;;;;;;;4.97;3.60;;;;;;;25.73;51.77;100896.47;5024384;28;20131;-72
2023/09/06 10:24:53;;;;;;;6.03;3.88;;;;;;;25.80;50.35;100892.16;5017161;28;20150;-74
2023/09/06 10:27:32;;;;;;;5.30;4.03;;;;;;;25.81;49.65;100887.56;5023283;28;20123;-74
2023/09/06 10:30:00;;;;;;;4.15;3.58;;;;;;;25.84;49.36;100893.50;5028735;28;20088;-74
2023/09/06 10:32:41;;;;;;;4.15;3.50;;;;;;;25.88;48.51;100894.03;5011841;28;20041;-74
2023/09/06 10:35:21;;;;;;;5.95;3.83;;;;;;;25.96;48.15;100887.84;5025870;28;20033;-76
2023/09/06 10:38:07;;;;;;;4.03;3.35;;;;;;;26.09;48.01;100886.41;5028951;28;20056;-75
2023/09/06 10:41:10;;;;;;;5.53;3.60;;;;;;;26.18;48.57;100890.84;5044011;28;20045;-74
2023/09/06 10:43:55;;;;;;;5.15;3.88;;;;;;;26.07;47.53;100865.84;5028955;28;20057;-75
2023/09/06 10:46:26;;;;;;;8.02;4.80;;;;;;;26.22;47.84;100880.53;5026429;28;20041;-76
2023/09/06 10:52:08;;;;;;;5.65;3.88;;;;;;;26.23;47.67;100856.94;5035751;28;20503;-75
2023/09/06 10:54:40;;;;;;;3.65;3.10;;;;;;;26.47;47.31;100874.22;5021571;28;20038;-76
2023/09/06 10:57:11;;;;;;;3.47;3.17;;;;;;;26.54;45.46;100872.56;5021353;28;20038;-77
2023/09/06 10:59:43;;;;;;;4.47;3.80;;;;;;;26.54;46.63;100867.13;5024238;28;20040;-75
2023/09/06 11:02:16;;;;;;;4.90;3.60;;;;;;;26.59;46.89;100863.94;5020923;28;20100;-71
2023/09/06 11:04:49;;;;;;;5.15;3.63;;;;;;;26.66;46.70;100870.41;5024070;28;20079;-74
2023/09/06 11:07:16;;;;;;;5.50;3.78;;;;;;;26.77;45.96;100867.38;5029576;28;20125;-75
2023/09/06 11:09:50;;;;;;;4.07;3.67;;;;;;;26.69;45.45;100847.50;5024655;28;20116;-71
2023/09/06 11:12:19;;;;;;;5.20;3.63;;;;;;;26.76;45.72;100860.22;5023197;28;20060;-75
2023/09/06 11:14:55;;;;;;;3.85;3.55;;;;;;;26.83;45.54;100858.56;5016823;28;20060;-73
2023/09/06 11:17:26;;;;;;;4.15;3.50;;;;;;;26.92;45.51;100863.00;5008191;28;20104;-73
2023/09/06 11:19:55;;;;;;;6.72;4.28;;;;;;;27.07;45.33;100863.25;5027635;28;20057;-72
2023/09/06 11:22:23;;;;;;;10.93;3.97;;;;;;;27.17;44.77;100849.50;5022201;28;20042;-72
2023/09/06 11:24:51;;;;;;;6.43;3.90;;;;;;;27.27;44.45;100852.88;5026275;28;20049;-71
2023/09/06 11:27:21;;;;;;;4.15;3.75;;;;;;;27.41;44.45;100844.06;5025458;28;20037;-73
2023/09/06 11:29:57;;;;;;;3.95;3.42;;;;;;;27.46;44.29;100838.13;5021465;28;20057;-72
2023/09/06 11:32:26;;;;;;;5.45;3.78;;;;;;;27.62;44.29;100843.56;5025386;28;20052;-71
2023/09/06 11:34:56;;;;;;;4.70;4.13;;;;;;;27.73;43.43;100845.94;5028093;28;20085;-79
2023/09/06 11:37:25;;;;;;;5.18;3.90;;;;;;;27.71;43.15;100844.41;5008411;28;20057;-71